Time;durP1;ratioP1;P1;durP2;ratioP2;P2;SDS_P1;SDS_P2;PMS_P1;PMS_P2;Temp;Humidity;BMP_temperature;BMP_pressure;BME280_temperature;BME280_humidity;BME280_pressure;Samples;Min_cycle;Max_cycle;Signal;HPM_P1;HPM_P2
2022/12/26 00:00:25;;;;;;;7.97;6.50;;;;;;;;;;5094129;28;20226;-72
2022/12/26 00:02:50;;;;;;;7.43;6.30;;;;;;;;;;5095624;28;20200;-72
2022/12/26 00:05:16;;;;;;;12.00;6.37;;;;;;;;;;5095643;28;20181;-72
2022/12/26 00:07:42;;;;;;;9.70;6.80;;;;;;;;;;5095092;28;20224;-71
2022/12/26 00:10:08;;;;;;;8.80;6.47;;;;;;;;;;5093700;28;20185;-71
2022/12/26 00:12:34;;;;;;;7.93;6.50;;;;;;;;;;5094837;28;20234;-72
2022/12/26 00:15:01;;;;;;;10.07;6.73;;;;;;;;;;5093813;28;20246;-72
2022/12/26 00:17:26;;;;;;;9.20;6.27;;;;;;;;;;5093394;28;20250;-72
2022/12/26 00:19:52;;;;;;;10.70;6.77;;;;;;;;;;5095153;28;20173;-71
2022/12/26 00:22:18;;;;;;;10.40;6.77;;;;;;;;;;5095236;28;20268;-72
2022/12/26 00:24:44;;;;;;;8.00;6.80;;;;;;;;;;5093831;28;20177;-72
2022/12/26 00:27:10;;;;;;;10.97;7.60;;;;;;;;;;5094762;28;20215;-72
2022/12/26 00:29:36;;;;;;;9.10;7.40;;;;;;;;;;5093549;28;20177;-71
2022/12/26 00:32:02;;;;;;;13.20;7.37;;;;;;;;;;5095676;28;20169;-71
2022/12/26 00:34:28;;;;;;;9.97;7.37;;;;;;;;;;5096678;28;20204;-72
2022/12/26 00:36:54;;;;;;;9.00;7.37;;;;;;;;;;5097257;28;20207;-72
2022/12/26 00:39:20;;;;;;;12.00;7.83;;;;;;;;;;5098827;28;20297;-72
2022/12/26 00:41:46;;;;;;;11.03;7.87;;;;;;;;;;5094895;28;20548;-72
2022/12/26 00:44:12;;;;;;;9.63;7.37;;;;;;;;;;5094895;28;20533;-72
2022/12/26 00:46:38;;;;;;;8.27;6.83;;;;;;;;;;5093753;28;20593;-72
2022/12/26 00:49:04;;;;;;;11.70;7.23;;;;;;;;;;5095177;28;20655;-71
2022/12/26 00:51:30;;;;;;;11.37;7.33;;;;;;;;;;5094471;28;20581;-73
2022/12/26 00:53:55;;;;;;;8.33;7.33;;;;;;;;;;5094566;28;20180;-71
2022/12/26 00:56:22;;;;;;;11.00;7.37;;;;;;;;;;5094742;28;20185;-72
2022/12/26 00:58:48;;;;;;;10.00;7.63;;;;;;;;;;5095536;28;20277;-72
2022/12/26 01:01:18;;;;;;;13.17;8.20;;;;;;;;;;5093163;28;20177;-72
2022/12/26 01:03:45;;;;;;;14.37;8.20;;;;;;;;;;5093895;28;20176;-72
2022/12/26 01:06:11;;;;;;;9.30;7.60;;;;;;;;;;5095266;28;20173;-73
2022/12/26 01:08:37;;;;;;;10.53;8.13;;;;;;;;;;5095256;28;20205;-72
2022/12/26 01:11:07;;;;;;;11.70;7.93;;;;;;;;;;5096031;28;20185;-72
2022/12/26 01:13:33;;;;;;;12.53;8.80;;;;;;;;;;5096777;28;20181;-72
2022/12/26 01:15:59;;;;;;;11.30;8.20;;;;;;;;;;5101835;28;20699;-72
2022/12/26 01:18:25;;;;;;;12.60;10.13;;;;;;;;;;5106064;28;20195;-71
2022/12/26 01:20:51;;;;;;;10.57;9.00;;;;;;;;;;5111805;28;20184;-72
2022/12/26 01:23:17;;;;;;;11.80;8.90;;;;;;;;;;5108367;28;20173;-71
2022/12/26 01:25:43;;;;;;;11.73;8.80;;;;;;;;;;5098397;28;20173;-72
2022/12/26 01:28:09;;;;;;;9.53;8.53;;;;;;;;;;5098620;28;20283;-72
2022/12/26 01:30:36;;;;;;;9.73;8.00;;;;;;;;;;5099483;28;20224;-72
2022/12/26 01:33:02;;;;;;;9.97;8.23;;;;;;;;;;5098697;28;20178;-72
2022/12/26 01:35:28;;;;;;;10.23;8.43;;;;;;;;;;5098221;28;20557;-72
2022/12/26 01:37:55;;;;;;;11.03;8.40;;;;;;;;;;5096730;28;20197;-72
2022/12/26 01:40:21;;;;;;;8.07;7.27;;;;;;;;;;5098334;28;20647;-72
2022/12/26 01:42:47;;;;;;;7.67;6.70;;;;;;;;;;5098180;28;20180;-72
2022/12/26 01:45:23;;;;;;;9.30;7.03;;;;;;;;;;5096447;28;20686;-72
2022/12/26 01:47:55;;;;;;;7.87;7.07;;;;;;;;;;5097581;28;20189;-72
2022/12/26 01:50:40;;;;;;;10.27;7.30;;;;;;;;;;5097758;28;20181;-72
2022/12/26 01:53:13;;;;;;;10.57;6.73;;;;;;;;;;5097702;28;20169;-72
2022/12/26 01:55:39;;;;;;;11.70;7.40;;;;;;;;;;5097920;28;20657;-72
2022/12/26 01:58:09;;;;;;;7.53;6.73;;;;;;;;;;5097661;28;20193;-71
2022/12/26 02:00:36;;;;;;;8.10;6.03;;;;;;;;;;5097681;28;20227;-72
2022/12/26 02:05:48;;;;;;;5.90;5.30;;;;;;;;;;5097656;28;20594;-72
2022/12/26 02:08:16;;;;;;;8.90;5.63;;;;;;;;;;5097180;28;20197;-72
2022/12/26 02:10:50;;;;;;;5.43;4.93;;;;;;;;;;5097536;28;20592;-72
2022/12/26 02:13:17;;;;;;;5.93;4.77;;;;;;;;;;5097500;28;20172;-72
2022/12/26 02:15:44;;;;;;;7.93;4.87;;;;;;;;;;5097101;28;20235;-72
2022/12/26 02:18:10;;;;;;;5.67;5.07;;;;;;;;;;5097123;28;20335;-72
2022/12/26 02:20:59;;;;;;;7.00;5.47;;;;;;;;;;5097633;28;20184;-72
2022/12/26 02:23:37;;;;;;;5.90;4.90;;;;;;;;;;5089261;28;20189;-72
2022/12/26 02:26:09;;;;;;;5.90;5.20;;;;;;;;;;5097150;28;20177;-73
2022/12/26 02:28:49;;;;;;;6.37;5.63;;;;;;;;;;5096182;28;20201;-72
2022/12/26 02:31:26;;;;;;;7.07;5.90;;;;;;;;;;5095476;28;20196;-73
2022/12/26 02:33:52;;;;;;;7.20;6.47;;;;;;;;;;5095570;28;20268;-73
2022/12/26 02:36:21;;;;;;;8.97;6.70;;;;;;;;;;5096801;28;20216;-73
2022/12/26 02:38:47;;;;;;;7.37;6.60;;;;;;;;;;5096563;28;20192;-72
2022/12/26 02:41:19;;;;;;;8.03;6.53;;;;;;;;;;5096835;28;20177;-72
2022/12/26 02:47:01;;;;;;;7.87;7.07;;;;;;;;;;5096395;28;20173;-72
2022/12/26 02:47:03;;;;;;;9.50;6.90;;;;;;;;;;5096662;28;20628;-73
2022/12/26 03:15:13;;;;;;;12.10;10.90;;;;;;;;;;5096458;28;20203;-73
2022/12/26 03:18:10;;;;;;;12.63;10.67;;;;;;;;;;5094659;28;20289;-73
2022/12/26 03:20:36;;;;;;;12.00;10.70;;;;;;;;;;5078859;28;20683;-73
2022/12/26 03:23:11;;;;;;;11.37;10.17;;;;;;;;;;5094554;28;20178;-73
2022/12/26 03:28:33;;;;;;;11.43;10.20;;;;;;;;;;5095888;28;20258;-73
2022/12/26 03:31:01;;;;;;;11.57;10.37;;;;;;;;;;5095817;28;20193;-73
2022/12/26 03:36:32;;;;;;;11.80;10.70;;;;;;;;;;5096038;28;20250;-72
2022/12/26 03:39:08;;;;;;;11.87;10.77;;;;;;;;;;5095692;28;20674;-73
2022/12/26 04:19:25;;;;;;;13.50;12.10;;;;;;;;;;5095126;28;20207;-72
2022/12/26 04:44:27;;;;;;;14.27;12.77;;;;;;;;;;5095098;28;20222;-71
2022/12/26 04:46:53;;;;;;;15.50;12.20;;;;;;;;;;5094631;28;20199;-72
2022/12/26 04:52:09;;;;;;;17.80;12.60;;;;;;;;;;5095067;28;20570;-72
2022/12/26 04:54:35;;;;;;;14.77;12.63;;;;;;;;;;5094406;28;20304;-72
2022/12/26 04:57:01;;;;;;;13.67;12.00;;;;;;;;;;5096538;28;20243;-72
2022/12/26 04:59:27;;;;;;;14.83;13.23;;;;;;;;;;5093173;28;20188;-72
2022/12/26 05:10:26;;;;;;;14.27;12.57;;;;;;;;;;5094597;28;20172;-72
2022/12/26 05:12:52;;;;;;;14.50;12.73;;;;;;;;;;5094240;28;20181;-74
2022/12/26 05:15:18;;;;;;;15.10;12.70;;;;;;;;;;5094121;28;20291;-72
2022/12/26 05:28:57;;;;;;;13.90;12.23;;;;;;;;;;5094520;28;20207;-71
2022/12/26 05:31:23;;;;;;;15.70;12.40;;;;;;;;;;5094090;28;20192;-72
2022/12/26 05:34:04;;;;;;;13.83;11.87;;;;;;;;;;5094470;28;20260;-72
2022/12/26 05:36:33;;;;;;;16.10;12.53;;;;;;;;;;5094501;28;20230;-71
2022/12/26 05:39:00;;;;;;;15.37;12.67;;;;;;;;;;5093906;28;20679;-72
2022/12/26 05:41:26;;;;;;;15.47;12.90;;;;;;;;;;5092754;28;20181;-71
2022/12/26 05:43:52;;;;;;;13.23;11.33;;;;;;;;;;5094085;28;20720;-72
2022/12/26 05:46:18;;;;;;;13.40;11.17;;;;;;;;;;5094309;28;20178;-72
2022/12/26 05:48:44;;;;;;;13.80;11.53;;;;;;;;;;5095934;28;20280;-71
2022/12/26 05:51:10;;;;;;;13.13;11.73;;;;;;;;;;5094167;28;20235;-72
2022/12/26 05:53:36;;;;;;;13.47;11.33;;;;;;;;;;5094009;28;20241;-71
2022/12/26 05:56:06;;;;;;;12.40;11.03;;;;;;;;;;5076104;28;20345;-71
2022/12/26 05:58:33;;;;;;;14.75;13.30;;;;;;;;;;5091913;28;20890;-71
2022/12/26 06:01:10;;;;;;;12.60;10.57;;;;;;;;;;5092908;28;20669;-71
2022/12/26 06:03:36;;;;;;;13.10;9.90;;;;;;;;;;5095390;28;20177;-71
2022/12/26 06:06:03;;;;;;;11.40;9.83;;;;;;;;;;5097764;28;20671;-71
2022/12/26 06:08:29;;;;;;;11.57;10.00;;;;;;;;;;5097952;28;20541;-71
2022/12/26 06:10:55;;;;;;;13.67;10.10;;;;;;;;;;5097633;28;20180;-71
2022/12/26 06:13:21;;;;;;;19.37;10.53;;;;;;;;;;5097700;28;20185;-71
2022/12/26 06:15:47;;;;;;;13.00;9.87;;;;;;;;;;5096457;28;20240;-71
2022/12/26 06:18:12;;;;;;;11.60;10.20;;;;;;;;;;5098862;28;20243;-71
2022/12/26 06:20:39;;;;;;;12.60;10.53;;;;;;;;;;5101776;28;20174;-71
2022/12/26 06:23:05;;;;;;;13.77;9.87;;;;;;;;;;5100434;28;20173;-72
2022/12/26 06:25:31;;;;;;;11.80;10.07;;;;;;;;;;5100498;28;20310;-71
2022/12/26 06:27:57;;;;;;;13.07;9.93;;;;;;;;;;5098991;28;20239;-71
2022/12/26 06:30:23;;;;;;;13.47;10.50;;;;;;;;;;5097958;28;20540;-72
2022/12/26 06:32:49;;;;;;;15.50;10.63;;;;;;;;;;5096604;28;20281;-71
2022/12/26 06:35:16;;;;;;;12.63;9.90;;;;;;;;;;5096012;28;20205;-71
2022/12/26 06:37:42;;;;;;;13.00;10.13;;;;;;;;;;5097430;28;20284;-71
2022/12/26 06:40:08;;;;;;;13.03;10.73;;;;;;;;;;5098363;28;20213;-72
2022/12/26 06:42:34;;;;;;;12.43;10.70;;;;;;;;;;5097451;28;20175;-71
2022/12/26 06:45:00;;;;;;;13.90;10.63;;;;;;;;;;5097693;28;20260;-71
2022/12/26 06:47:26;;;;;;;14.17;11.20;;;;;;;;;;5095647;28;20197;-71
2022/12/26 06:49:52;;;;;;;15.27;11.53;;;;;;;;;;5095809;28;20185;-71
2022/12/26 06:52:18;;;;;;;15.20;10.60;;;;;;;;;;5097473;28;20177;-71
2022/12/26 06:54:44;;;;;;;15.83;11.47;;;;;;;;;;5095741;28;20205;-71
2022/12/26 06:57:10;;;;;;;14.50;10.73;;;;;;;;;;5097183;28;20184;-71
2022/12/26 06:59:36;;;;;;;12.43;10.50;;;;;;;;;;5095553;28;20177;-71
2022/12/26 07:02:02;;;;;;;12.87;9.67;;;;;;;;;;5095557;28;20177;-71
2022/12/26 07:04:28;;;;;;;11.97;9.83;;;;;;;;;;5095959;28;20181;-71
2022/12/26 07:06:54;;;;;;;11.37;10.10;;;;;;;;;;5095707;28;20185;-71
2022/12/26 07:09:20;;;;;;;11.83;10.53;;;;;;;;;;5095418;28;20204;-71
2022/12/26 07:11:47;;;;;;;11.70;10.07;;;;;;;;;;5095458;28;20181;-70
2022/12/26 07:14:13;;;;;;;12.53;10.10;;;;;;;;;;5095319;28;20234;-71
2022/12/26 07:16:40;;;;;;;10.37;9.27;;;;;;;;;;5094599;28;20199;-71
2022/12/26 07:19:06;;;;;;;10.23;9.17;;;;;;;;;;5096682;28;20246;-70
2022/12/26 07:21:32;;;;;;;11.03;8.57;;;;;;;;;;5095263;28;20640;-71
2022/12/26 07:23:58;;;;;;;10.53;8.83;;;;;;;;;;5096198;28;20177;-71
2022/12/26 07:26:25;;;;;;;10.70;8.13;;;;;;;;;;5094710;28;20185;-71
2022/12/26 07:28:55;;;;;;;8.43;7.63;;;;;;;;;;5096147;28;20571;-71
2022/12/26 07:31:21;;;;;;;10.50;9.13;;;;;;;;;;5097892;28;20201;-72
2022/12/26 07:33:48;;;;;;;10.33;8.87;;;;;;;;;;5096293;28;20173;-71
2022/12/26 07:36:14;;;;;;;11.57;9.20;;;;;;;;;;5095085;28;20300;-71
2022/12/26 07:38:40;;;;;;;13.40;8.90;;;;;;;;;;5094599;28;20204;-71
2022/12/26 07:43:50;;;;;;;11.13;8.37;;;;;;;;;;5095942;28;20199;-71
2022/12/26 07:46:17;;;;;;;8.90;8.00;;;;;;;;;;5094370;28;20177;-72
2022/12/26 07:48:43;;;;;;;8.77;7.33;;;;;;;;;;5094544;28;20208;-71
2022/12/26 07:51:09;;;;;;;8.90;7.70;;;;;;;;;;5094598;28;20185;-71
2022/12/26 07:53:35;;;;;;;8.00;7.30;;;;;;;;;;5096324;28;20184;-71
2022/12/26 07:56:01;;;;;;;9.93;6.97;;;;;;;;;;5094866;28;20205;-71
2022/12/26 07:58:27;;;;;;;8.03;6.70;;;;;;;;;;5094420;28;20266;-71
2022/12/26 08:00:53;;;;;;;7.57;6.37;;;;;;;;;;5095790;28;20173;-72
2022/12/26 08:03:19;;;;;;;7.80;5.50;;;;;;;;;;5096705;28;20199;-71
2022/12/26 08:05:46;;;;;;;5.73;5.13;;;;;;;;;;5094549;28;20185;-71
2022/12/26 08:08:12;;;;;;;5.33;4.83;;;;;;;;;;5095192;28;20201;-71
2022/12/26 08:10:38;;;;;;;6.60;4.80;;;;;;;;;;5096119;28;20224;-72
2022/12/26 08:13:04;;;;;;;5.03;4.53;;;;;;;;;;5096204;28;20185;-72
2022/12/26 08:15:30;;;;;;;5.30;4.60;;;;;;;;;;5098305;28;20215;-71
2022/12/26 08:17:56;;;;;;;5.10;4.13;;;;;;;;;;5100273;28;20193;-72
2022/12/26 08:20:22;;;;;;;6.93;4.10;;;;;;;;;;5098780;28;20177;-71
2022/12/26 08:22:50;;;;;;;5.90;4.00;;;;;;;;;;5105197;28;20177;-71
2022/12/26 08:25:16;;;;;;;6.80;4.20;;;;;;;;;;5111441;28;20185;-72
2022/12/26 08:27:43;;;;;;;4.93;3.77;;;;;;;;;;5116803;28;20224;-73
2022/12/26 08:30:09;;;;;;;4.00;3.60;;;;;;;;;;5116227;28;20204;-72
2022/12/26 08:32:35;;;;;;;5.57;4.10;;;;;;;;;;5115588;28;20153;-71
2022/12/26 08:35:02;;;;;;;4.77;3.87;;;;;;;;;;5117669;28;20205;-72
2022/12/26 08:37:28;;;;;;;6.20;4.17;;;;;;;;;;5105129;28;20230;-71
2022/12/26 08:39:54;;;;;;;6.83;3.70;;;;;;;;;;5095066;28;20173;-72
2022/12/26 08:42:21;;;;;;;5.03;3.57;;;;;;;;;;5093687;28;20225;-72
2022/12/26 08:44:48;;;;;;;6.13;3.30;;;;;;;;;;5094782;28;20656;-72
2022/12/26 08:47:14;;;;;;;4.63;3.40;;;;;;;;;;5093442;28;20663;-72
2022/12/26 08:49:40;;;;;;;3.53;3.23;;;;;;;;;;5093444;28;20188;-72
2022/12/26 08:52:06;;;;;;;4.50;3.57;;;;;;;;;;5093662;28;20698;-72
2022/12/26 08:54:33;;;;;;;3.63;2.93;;;;;;;;;;5093560;28;20204;-71
2022/12/26 08:56:59;;;;;;;5.47;2.90;;;;;;;;;;5094662;28;20233;-72
2022/12/26 08:59:25;;;;;;;4.70;2.67;;;;;;;;;;5094813;28;20197;-71
2022/12/26 09:01:51;;;;;;;4.13;2.43;;;;;;;;;;5094591;28;20181;-72
2022/12/26 09:04:17;;;;;;;3.53;2.50;;;;;;;;;;5094935;28;20177;-71
2022/12/26 09:06:43;;;;;;;3.80;2.60;;;;;;;;;;5093655;28;20554;-71
2022/12/26 09:09:10;;;;;;;5.37;2.43;;;;;;;;;;5093703;28;20205;-72
2022/12/26 09:11:36;;;;;;;5.03;3.33;;;;;;;;;;5093780;28;20188;-71
2022/12/26 09:14:04;;;;;;;2.80;2.50;;;;;;;;;;5097955;28;20641;-71
2022/12/26 09:16:32;;;;;;;3.50;2.10;;;;;;;;;;5096125;28;20205;-71
2022/12/26 09:18:59;;;;;;;5.00;2.10;;;;;;;;;;5095359;28;20681;-72
2022/12/26 09:21:25;;;;;;;2.70;2.20;;;;;;;;;;5095950;28;20203;-72
2022/12/26 09:23:55;;;;;;;2.83;1.90;;;;;;;;;;5095396;28;20595;-72
2022/12/26 09:26:21;;;;;;;4.53;2.10;;;;;;;;;;5094192;28;20234;-72
2022/12/26 09:31:16;;;;;;;7.40;2.47;;;;;;;;;;5070428;22;20296;-73
2022/12/26 09:33:42;;;;;;;7.97;1.97;;;;;;;;;;5053263;28;20620;-74
2022/12/26 09:36:12;;;;;;;3.67;2.20;;;;;;;;;;5053443;28;20223;-73
2022/12/26 09:38:38;;;;;;;3.03;1.67;;;;;;;;;;5054111;28;20239;-73
2022/12/26 09:41:20;;;;;;;4.00;1.90;;;;;;;;;;5054198;28;20194;-72
2022/12/26 09:44:04;;;;;;;2.97;2.00;;;;;;;;;;5056785;28;20288;-72
2022/12/26 09:46:42;;;;;;;3.17;1.87;;;;;;;;;;5055904;28;20189;-72
2022/12/26 09:49:25;;;;;;;2.67;1.70;;;;;;;;;;5055469;28;20178;-72
2022/12/26 09:51:54;;;;;;;2.47;1.57;;;;;;;;;;5055660;28;20201;-73
2022/12/26 09:54:29;;;;;;;3.40;1.90;;;;;;;;;;5056739;28;20228;-74
2022/12/26 09:56:55;;;;;;;5.00;1.90;;;;;;;;;;5057428;28;20166;-74
2022/12/26 09:59:23;;;;;;;4.63;3.17;;;;;;;;;;5057677;28;20261;-72
2022/12/26 10:01:49;;;;;;;3.83;3.00;;;;;;;;;;5055819;28;20179;-76
2022/12/26 10:04:18;;;;;;;2.77;1.93;;;;;;;;;;5055736;28;20182;-71
2022/12/26 10:06:52;;;;;;;4.60;2.00;;;;;;;;;;5056909;28;20182;-71
2022/12/26 10:09:24;;;;;;;2.47;1.90;;;;;;;;;;5055226;28;20723;-71
2022/12/26 10:11:58;;;;;;;2.80;2.00;;;;;;;;;;5056814;28;20163;-71
2022/12/26 10:14:24;;;;;;;4.00;1.70;;;;;;;;;;5056397;28;20308;-71
2022/12/26 10:17:15;;;;;;;2.80;1.70;;;;;;;;;;5056322;28;20202;-71
2022/12/26 10:19:46;;;;;;;8.47;2.37;;;;;;;;;;5055140;28;20273;-71
2022/12/26 10:22:20;;;;;;;4.80;1.70;;;;;;;;;;5055105;28;20241;-72
2022/12/26 10:24:49;;;;;;;3.87;1.73;;;;;;;;;;5056193;28;20162;-73
2022/12/26 10:27:16;;;;;;;2.27;1.77;;;;;;;;;;5056084;28;20220;-73
2022/12/26 10:29:45;;;;;;;6.00;3.30;;;;;;;;;;5055987;28;20221;-72
2022/12/26 10:32:13;;;;;;;4.57;1.90;;;;;;;;;;5056064;28;20175;-75
2022/12/26 10:34:40;;;;;;;2.37;1.70;;;;;;;;;;5055256;28;20201;-73
2022/12/26 10:37:12;;;;;;;4.90;2.00;;;;;;;;;;5055102;28;20182;-75
2022/12/26 10:39:44;;;;;;;6.63;3.60;;;;;;;;;;5056687;28;20198;-73
2022/12/26 10:42:32;;;;;;;3.90;1.93;;;;;;;;;;5056157;28;20181;-73
2022/12/26 10:44:58;;;;;;;8.53;5.73;;;;;;;;;;5054656;28;20185;-72
2022/12/26 10:47:37;;;;;;;4.20;2.70;;;;;;;;;;5056272;28;20179;-73
2022/12/26 10:50:03;;;;;;;6.77;4.50;;;;;;;;;;5054887;28;20202;-73
2022/12/26 10:52:31;;;;;;;9.47;6.30;;;;;;;;;;5054696;28;20189;-72
2022/12/26 10:54:58;;;;;;;12.30;6.53;;;;;;;;;;5055991;28;20605;-74
2022/12/26 10:57:26;;;;;;;5.20;3.30;;;;;;;;;;5055852;28;20206;-71
2022/12/26 10:59:53;;;;;;;8.70;4.50;;;;;;;;;;5055598;28;20198;-72
2022/12/26 11:02:24;;;;;;;9.60;5.37;;;;;;;;;;5055834;28;20179;-74
2022/12/26 11:05:01;;;;;;;27.73;14.97;;;;;;;;;;5055604;28;20635;-73
2022/12/26 11:07:29;;;;;;;25.70;13.17;;;;;;;;;;5055365;28;20182;-73
2022/12/26 11:09:57;;;;;;;10.30;7.00;;;;;;;;;;5053874;28;20202;-70
2022/12/26 11:12:26;;;;;;;9.13;6.27;;;;;;;;;;5054389;28;20193;-72
2022/12/26 11:14:57;;;;;;;10.73;5.40;;;;;;;;;;5053895;28;20210;-73
2022/12/26 11:17:28;;;;;;;7.07;3.90;;;;;;;;;;5055793;28;20167;-72
2022/12/26 11:20:12;;;;;;;6.30;3.93;;;;;;;;;;5053923;28;20203;-73
2022/12/26 11:22:38;;;;;;;4.03;2.30;;;;;;;;;;5054346;28;20684;-73
2022/12/26 11:25:08;;;;;;;2.90;1.90;;;;;;;;;;5054426;28;20183;-73
2022/12/26 11:27:34;;;;;;;7.27;3.07;;;;;;;;;;5054528;28;20179;-74
2022/12/26 11:30:18;;;;;;;5.00;3.30;;;;;;;;;;5055451;28;20218;-72
2022/12/26 11:32:47;;;;;;;6.20;2.50;;;;;;;;;;5055327;28;20182;-73
2022/12/26 11:35:20;;;;;;;6.50;2.20;;;;;;;;;;5053973;28;20209;-73
2022/12/26 11:37:50;;;;;;;7.40;1.87;;;;;;;;;;5053847;28;20224;-72
2022/12/26 11:40:20;;;;;;;4.17;1.57;;;;;;;;;;5055210;28;20562;-74
2022/12/26 11:42:55;;;;;;;2.50;1.70;;;;;;;;;;5055356;28;20580;-73
2022/12/26 11:45:29;;;;;;;3.80;2.10;;;;;;;;;;5055471;28;20711;-74
2022/12/26 11:47:56;;;;;;;6.17;1.90;;;;;;;;;;5054066;28;20555;-73
2022/12/26 11:50:24;;;;;;;3.20;1.90;;;;;;;;;;5053861;28;20202;-73
2022/12/26 11:53:04;;;;;;;5.20;2.00;;;;;;;;;;5055402;28;20183;-72
2022/12/26 11:55:32;;;;;;;4.00;2.07;;;;;;;;;;5054195;28;20190;-73
2022/12/26 11:58:17;;;;;;;2.27;1.43;;;;;;;;;;5055419;28;20170;-72
2022/12/26 12:00:44;;;;;;;4.93;1.93;;;;;;;;;;5053637;28;20202;-73
2022/12/26 12:03:15;;;;;;;4.50;1.60;;;;;;;;;;5054791;28;20181;-72
2022/12/26 12:05:50;;;;;;;4.60;2.37;;;;;;;;;;5054988;28;20178;-71
2022/12/26 12:08:22;;;;;;;4.77;1.97;;;;;;;;;;5054330;28;20177;-70
2022/12/26 12:10:57;;;;;;;6.13;2.10;;;;;;;;;;5055450;28;20207;-70
2022/12/26 12:13:37;;;;;;;6.00;2.73;;;;;;;;;;5053684;28;20182;-72
2022/12/26 12:16:06;;;;;;;4.00;1.80;;;;;;;;;;5054785;28;20684;-72
2022/12/26 12:18:32;;;;;;;2.93;1.80;;;;;;;;;;5055250;28;20208;-71
2022/12/26 12:21:04;;;;;;;4.20;1.83;;;;;;;;;;5054855;28;20195;-72
2022/12/26 12:23:48;;;;;;;3.70;2.10;;;;;;;;;;5054593;28;20242;-71
2022/12/26 12:26:23;;;;;;;3.03;1.93;;;;;;;;;;5052657;28;20241;-71
2022/12/26 12:29:08;;;;;;;5.57;1.77;;;;;;;;;;5053387;28;20186;-70
2022/12/26 12:31:37;;;;;;;2.63;1.53;;;;;;;;;;5053210;28;20178;-71
2022/12/26 12:34:21;;;;;;;5.50;2.23;;;;;;;;;;5052903;28;20187;-71
2022/12/26 12:36:50;;;;;;;1.73;1.40;;;;;;;;;;5053053;28;20644;-71
2022/12/26 12:39:19;;;;;;;7.70;1.97;;;;;;;;;;5054109;28;20289;-73
2022/12/26 12:41:59;;;;;;;4.40;1.80;;;;;;;;;;5053907;28;20274;-70
2022/12/26 12:44:43;;;;;;;4.53;2.00;;;;;;;;;;5053252;28;20374;-68
2022/12/26 12:47:23;;;;;;;7.33;2.30;;;;;;;;;;5053258;28;20206;-70
2022/12/26 12:50:07;;;;;;;7.53;2.57;;;;;;;;;;5053140;28;20198;-71
2022/12/26 12:52:52;;;;;;;3.60;1.73;;;;;;;;;;5054409;28;20193;-71
2022/12/26 12:55:28;;;;;;;5.17;2.17;;;;;;;;;;5052917;28;20261;-70
2022/12/26 12:58:03;;;;;;;4.50;2.30;;;;;;;;;;5054404;28;20249;-68
2022/12/26 13:00:35;;;;;;;5.33;2.03;;;;;;;;;;5052781;28;20288;-69
2022/12/26 13:03:03;;;;;;;4.10;1.90;;;;;;;;;;5054199;28;20163;-71
2022/12/26 13:05:32;;;;;;;5.37;1.90;;;;;;;;;;5052899;28;20528;-72
2022/12/26 13:08:01;;;;;;;7.33;1.90;;;;;;;;;;5053044;28;20186;-71
2022/12/26 13:10:30;;;;;;;6.00;2.70;;;;;;;;;;5052837;28;20229;-71
2022/12/26 13:12:56;;;;;;;8.77;2.70;;;;;;;;;;5053965;28;20183;-71
2022/12/26 13:15:22;;;;;;;13.80;7.33;;;;;;;;;;5053249;28;20266;-70
2022/12/26 13:17:55;;;;;;;14.10;5.57;;;;;;;;;;5054761;28;20209;-74
2022/12/26 13:20:45;;;;;;;62.27;40.67;;;;;;;;;;5052986;28;20613;-72
2022/12/26 13:26:10;;;;;;;10.40;4.70;;;;;;;;;;5054682;28;20609;-71
2022/12/26 13:28:40;;;;;;;9.23;5.20;;;;;;;;;;5053574;28;20185;-73
2022/12/26 13:31:06;;;;;;;15.57;7.73;;;;;;;;;;5054692;28;20210;-75
2022/12/26 13:33:33;;;;;;;15.10;9.43;;;;;;;;;;5054324;28;20725;-74
2022/12/26 13:36:00;;;;;;;9.40;5.10;;;;;;;;;;5054390;28;20201;-72
2022/12/26 13:38:46;;;;;;;8.73;4.50;;;;;;;;;;5053012;28;20185;-72
2022/12/26 13:44:24;;;;;;;13.50;4.97;;;;;;;;;;5054482;28;20178;-72
2022/12/26 13:46:49;;;;;;;15.10;4.90;;;;;;;;;;5052930;28;20179;-76
2022/12/26 13:49:28;;;;;;;10.98;4.82;;;;;;;;;;5052578;28;20396;-72
2022/12/26 13:51:55;;;;;;;16.17;5.67;;;;;;;;;;5052488;28;20447;-72
2022/12/26 13:54:23;;;;;;;14.40;5.13;;;;;;;;;;5051340;28;20939;-75
2022/12/26 13:57:06;;;;;;;15.15;5.15;;;;;;;;;;5053304;28;20381;-72
2022/12/26 13:59:36;;;;;;;17.08;5.63;;;;;;;;;;5052209;28;20385;-76
2022/12/26 14:02:13;;;;;;;13.23;5.20;;;;;;;;;;5052646;28;20381;-73
2022/12/26 14:04:51;;;;;;;16.67;6.20;;;;;;;;;;5054446;28;20431;-73
2022/12/26 14:07:23;;;;;;;10.57;4.57;;;;;;;;;;5052454;28;20240;-73
2022/12/26 14:09:57;;;;;;;20.00;5.60;;;;;;;;;;5053773;28;20194;-73
2022/12/26 14:12:35;;;;;;;10.10;4.73;;;;;;;;;;5052805;28;20233;-74
2022/12/26 14:15:07;;;;;;;15.97;5.03;;;;;;;;;;5052456;28;20213;-75
2022/12/26 14:17:47;;;;;;;14.10;4.73;;;;;;;;;;5053831;28;20180;-71
2022/12/26 14:20:12;;;;;;;16.03;4.27;;;;;;;;;;5053335;28;20372;-73
2022/12/26 14:22:38;;;;;;;14.83;5.10;;;;;;;;;;5053363;28;20228;-73
2022/12/26 14:25:04;;;;;;;11.03;4.23;;;;;;;;;;5053957;28;20179;-73
2022/12/26 14:27:43;;;;;;;15.63;4.73;;;;;;;;;;5055595;28;20638;-73
2022/12/26 14:30:27;;;;;;;9.13;5.20;;;;;;;;;;5056563;28;20256;-74
2022/12/26 14:33:12;;;;;;;11.90;4.13;;;;;;;;;;5055306;28;20193;-73
2022/12/26 14:35:52;;;;;;;12.23;4.97;;;;;;;;;;5056646;28;20194;-72
2022/12/26 14:38:18;;;;;;;16.13;5.00;;;;;;;;;;5056444;28;20173;-70
2022/12/26 14:40:57;;;;;;;17.07;5.63;;;;;;;;;;5054946;28;20245;-73
2022/12/26 14:43:28;;;;;;;13.43;4.30;;;;;;;;;;5056616;28;20202;-74
2022/12/26 14:45:56;;;;;;;15.93;4.57;;;;;;;;;;5055012;28;20175;-71
2022/12/26 14:48:22;;;;;;;9.80;4.53;;;;;;;;;;5054859;28;20213;-73
2022/12/26 14:50:54;;;;;;;15.53;5.40;;;;;;;;;;5056218;28;20222;-70
2022/12/26 14:53:20;;;;;;;11.20;4.60;;;;;;;;;;5054930;28;20206;-73
2022/12/26 14:55:50;;;;;;;11.80;4.40;;;;;;;;;;5054765;28;20240;-68
2022/12/26 14:58:31;;;;;;;9.17;5.20;;;;;;;;;;5056274;28;20174;-73
2022/12/26 15:01:17;;;;;;;11.27;4.13;;;;;;;;;;5056232;28;20198;-72
2022/12/26 15:04:15;;;;;;;11.35;4.47;;;;;;;;;;5055238;28;20413;-73
2022/12/26 15:07:00;;;;;;;13.10;4.30;;;;;;;;;;5021570;28;20499;-74
2022/12/26 15:09:26;;;;;;;24.00;10.77;;;;;;;;;;5054791;28;20792;-72
2022/12/26 15:12:01;;;;;;;26.60;14.47;;;;;;;;;;5054506;28;20377;-72
2022/12/26 15:14:30;;;;;;;11.50;4.70;;;;;;;;;;5054212;28;20404;-74
2022/12/26 15:17:00;;;;;;;12.63;4.47;;;;;;;;;;5054481;28;20373;-73
2022/12/26 15:19:45;;;;;;;12.05;4.60;;;;;;;;;;5054445;28;20495;-73
2022/12/26 15:22:33;;;;;;;11.67;4.57;;;;;;;;;;5054294;28;20434;-73
2022/12/26 15:25:16;;;;;;;11.60;4.10;;;;;;;;;;5054552;28;20486;-73
2022/12/26 15:27:58;;;;;;;12.95;4.72;;;;;;;;;;5054580;28;20905;-72
2022/12/26 15:30:24;;;;;;;11.30;4.13;;;;;;;;;;5054276;28;20434;-72
2022/12/26 15:33:16;;;;;;;15.90;5.03;;;;;;;;;;5054052;28;20548;-74
2022/12/26 15:35:51;;;;;;;12.68;5.20;;;;;;;;;;5049003;28;20461;-73
2022/12/26 15:38:25;;;;;;;10.88;5.72;;;;;;;;;;5054147;28;20403;-73
2022/12/26 15:40:53;;;;;;;12.60;4.32;;;;;;;;;;5052674;28;20385;-73
2022/12/26 15:43:38;;;;;;;8.82;4.30;;;;;;;;;;5053994;28;20748;-73
2022/12/26 15:46:19;;;;;;;10.48;3.97;;;;;;;;;;5054714;28;20944;-73
2022/12/26 15:49:03;;;;;;;8.90;3.38;;;;;;;;;;5055210;28;20382;-74
2022/12/26 15:51:29;;;;;;;11.25;3.22;;;;;;;;;;5055223;28;20393;-72
2022/12/26 15:54:14;;;;;;;6.68;3.53;;;;;;;;;;5055368;28;20385;-71
2022/12/26 15:56:40;;;;;;;7.70;4.77;;;;;;;;;;5055298;28;20210;-75
2022/12/26 15:59:25;;;;;;;9.67;2.50;;;;;;;;;;5056110;28;20185;-73
2022/12/26 16:01:53;;;;;;;8.03;2.50;;;;;;;;;;5055854;28;20178;-73
2022/12/26 16:04:31;;;;;;;5.23;2.00;;;;;;;;;;5055987;28;20265;-73
2022/12/26 16:07:07;;;;;;;3.40;2.00;;;;;;;;;;5053305;28;20170;-71
2022/12/26 16:09:36;;;;;;;6.70;2.27;;;;;;;;;;5054197;28;20293;-74
2022/12/26 16:12:02;;;;;;;5.97;2.30;;;;;;;;;;5055809;28;20171;-71
2022/12/26 16:14:35;;;;;;;3.53;2.23;;;;;;;;;;5054280;28;20594;-73
2022/12/26 16:17:13;;;;;;;10.17;2.37;;;;;;;;;;5055391;28;20266;-72
2022/12/26 16:19:40;;;;;;;4.63;2.17;;;;;;;;;;5055169;28;20194;-73
2022/12/26 16:24:53;;;;;;;4.83;2.30;;;;;;;;;;5055769;28;20189;-74
2022/12/26 16:27:21;;;;;;;6.37;2.77;;;;;;;;;;5055564;28;20665;-71
2022/12/26 16:29:52;;;;;;;7.53;2.70;;;;;;;;;;5055920;28;20214;-71
2022/12/26 16:32:20;;;;;;;10.27;2.77;;;;;;;;;;5056158;28;20312;-70
2022/12/26 16:34:46;;;;;;;7.63;2.90;;;;;;;;;;5055795;28;20595;-73
2022/12/26 16:37:16;;;;;;;4.87;2.70;;;;;;;;;;5056179;28;20206;-72
2022/12/26 16:39:42;;;;;;;3.73;2.07;;;;;;;;;;5056682;28;20201;-69
2022/12/26 16:42:25;;;;;;;4.07;2.53;;;;;;;;;;5055241;28;20174;-71
2022/12/26 16:44:54;;;;;;;8.50;4.03;;;;;;;;;;5055251;28;20403;-69
2022/12/26 16:47:20;;;;;;;5.90;2.77;;;;;;;;;;5055765;28;20183;-67
2022/12/26 16:49:46;;;;;;;8.17;3.30;;;;;;;;;;5055292;28;20206;-71
2022/12/26 16:52:33;;;;;;;5.83;3.03;;;;;;;;;;5056081;28;20178;-71
2022/12/26 16:55:19;;;;;;;7.20;2.87;;;;;;;;;;5055882;28;20202;-71
2022/12/26 16:57:45;;;;;;;9.13;3.10;;;;;;;;;;5055469;28;20650;-71
2022/12/26 17:00:16;;;;;;;5.77;2.53;;;;;;;;;;5055912;28;20210;-70
2022/12/26 17:02:45;;;;;;;20.93;11.33;;;;;;;;;;5055840;28;20163;-73
2022/12/26 17:05:20;;;;;;;10.03;3.50;;;;;;;;;;5054636;28;20283;-72